^^
Anthem North Phoenix Station Historical Data
 
Daily Summary for February 22, 2019 Units:  English    Metric   Both
Daily Weekly Monthly Yearly Custom
  Current: High: Low: Average:
Temperature: 44.0 °F 44.5 °F 32.3 °F 36.7 °F
Dew Point: 38.9 °F 39.6 °F 30.2 °F 33.7 °F
Humidity: 82% 93% 74% 89%
Wind Speed: 1.8mph 4.1mph 0.0mph 0.6mph
Wind Gust: 2.3mph 4.0mph - -
WindNNW - - SSE
Pressure: 30.06 in 30.06 in 29.84 in -
Precipitation: 0.63 in      
Historical Graphs
 
 
Tabular Data for February 22, 2019
Time Temperature Dew Point Pressure Wind Wind Speed Wind Gust Humidity Rainfall Rate (Hourly)
00:04 32.5 °F 30.2 °F 29.85 in Calm     91% 0.04 in
00:09 32.6 °F 30.3 °F 29.85 in NE 0.1 mph 1.2 mph 91% 0.04 in
00:14 32.8 °F 30.5 °F 29.85 in Calm   1.2 mph 91% 0.03 in
00:19 32.9 °F 30.6 °F 29.84 in Calm     91% 0.03 in
00:24 32.9 °F 30.6 °F 29.84 in Calm     91% 0.03 in
00:26 32.9 °F 30.6 °F 29.84 in Calm     91% 0.02 in
00:34 33.1 °F 31.0 °F 29.85 in Calm     92% 0.02 in
00:39 32.9 °F 30.6 °F 29.86 in Calm     91% 0.02 in
00:44 32.9 °F 30.6 °F 29.85 in Calm     91% 0.01 in
00:49 32.9 °F 30.8 °F 29.86 in Calm     92% 0.01 in
00:52 32.9 °F 30.8 °F 29.86 in Calm     92% 0.00 in
00:59 33.2 °F 31.1 °F 29.86 in Calm     92% 0.00 in
01:04 33.2 °F 31.1 °F 29.86 in SSE 0.2 mph 1.2 mph 92% 0.01 in
01:09 33.3 °F 31.2 °F 29.86 in SE 0.1 mph   92% 0.01 in
01:17 33.5 °F 31.4 °F 29.86 in Calm     92% 0.02 in
01:24 33.4 °F 31.1 °F 29.86 in Calm   2.3 mph 91% 0.03 in
01:29 33.4 °F 31.1 °F 29.86 in SSE 1.4 mph 2.3 mph 91% 0.03 in
01:34 33.4 °F 31.1 °F 29.86 in Calm     91% 0.03 in
01:39 33.4 °F 31.1 °F 29.86 in Calm     91% 0.04 in
01:44 33.4 °F 31.1 °F 29.86 in Calm     91% 0.05 in
01:49 33.3 °F 31.0 °F 29.86 in Calm     91% 0.05 in
01:54 33.1 °F 30.8 °F 29.86 in NNW 0.9 mph 1.2 mph 91% 0.05 in
01:59 32.8 °F 30.5 °F 29.87 in Calm     91% 0.05 in
02:04 32.7 °F 30.4 °F 29.86 in Calm     91% 0.06 in
02:09 32.5 °F 30.2 °F 29.86 in Calm     91% 0.06 in
02:14 32.5 °F 30.2 °F 29.87 in Calm     91% 0.06 in
02:19 32.5 °F 30.2 °F 29.86 in Calm     91% 0.05 in
02:24 32.5 °F 30.4 °F 29.87 in NNW 1.0 mph 1.2 mph 92% 0.05 in
02:29 32.4 °F 30.3 °F 29.87 in Calm     92% 0.04 in
02:34 32.4 °F 30.3 °F 29.88 in Calm     92% 0.03 in
02:39 32.3 °F 30.2 °F 29.88 in Calm     92% 0.03 in
02:44 32.3 °F 30.2 °F 29.87 in Calm     92% 0.02 in
02:48 32.3 °F 30.2 °F 29.88 in Calm     92% 0.02 in
03:11 32.3 °F 30.2 °F 29.86 in Calm     92% 0.02 in
03:18 32.5 °F 30.4 °F 29.86 in Calm     92% 0.02 in
03:22 32.7 °F 30.6 °F 29.86 in Calm     92% 0.02 in
03:31 33.0 °F 31.2 °F 29.86 in Calm     93% 0.02 in
03:39 33.6 °F 31.8 °F 29.87 in Calm   1.2 mph 93% 0.05 in
03:44 33.6 °F 31.5 °F 29.88 in Calm     92% 0.06 in
03:49 33.6 °F 31.5 °F 29.88 in Calm     92% 0.06 in
03:54 33.5 °F 31.4 °F 29.87 in Calm     92% 0.06 in
03:59 33.4 °F 31.3 °F 29.88 in SSW 0.8 mph 2.3 mph 92% 0.07 in
04:04 33.3 °F 31.2 °F 29.87 in SSW 1.4 mph 2.3 mph 92% 0.07 in
04:09 33.2 °F 31.1 °F 29.88 in SSW 1.0 mph 1.2 mph 92% 0.08 in
04:14 33.1 °F 31.0 °F 29.88 in SW 0.6 mph 1.2 mph 92% 0.08 in
04:19 33.0 °F 30.9 °F 29.88 in SSW 0.1 mph   92% 0.09 in
04:23 33.0 °F 30.9 °F 29.88 in SW 0.1 mph   92% 0.09 in
04:28 32.9 °F 30.8 °F 29.88 in Calm     92% 0.09 in
04:31 32.9 °F 30.8 °F 29.88 in Calm     92% 0.09 in
04:39 32.7 °F 30.6 °F 29.88 in Calm     92% 0.10 in
04:44 32.6 °F 30.5 °F 29.89 in Calm     92% 0.07 in
04:49 32.6 °F 30.5 °F 29.90 in Calm     92% 0.06 in
04:54 32.6 °F 30.5 °F 29.89 in Calm     92% 0.05 in
04:59 32.5 °F 30.4 °F 29.89 in Calm     92% 0.05 in
05:04 32.4 °F 30.3 °F 29.90 in Calm     92% 0.04 in
05:09 32.4 °F 30.3 °F 29.90 in Calm     92% 0.03 in
05:14 32.5 °F 30.4 °F 29.91 in Calm     92% 0.03 in
05:19 32.5 °F 30.4 °F 29.91 in Calm     92% 0.04 in
05:24 32.5 °F 30.4 °F 29.91 in Calm     92% 0.03 in
05:29 32.6 °F 30.5 °F 29.91 in Calm     92% 0.03 in
05:34 32.6 °F 30.5 °F 29.92 in Calm     92% 0.02 in
05:39 32.7 °F 30.6 °F 29.92 in Calm     92% 0.01 in
05:44 32.7 °F 30.6 °F 29.92 in Calm     92% 0.02 in
05:49 32.8 °F 30.7 °F 29.91 in NNE 0.4 mph 1.2 mph 92% 0.02 in
05:54 32.8 °F 30.7 °F 29.91 in NNE 0.4 mph 1.2 mph 92% 0.02 in
05:56 32.8 °F 30.7 °F 29.91 in NNE 0.4 mph 1.2 mph 92% 0.02 in
06:04 32.8 °F 31.0 °F 29.91 in Calm     93% 0.03 in
06:08 32.8 °F 31.0 °F 29.91 in Calm     93% 0.03 in
06:24 33.4 °F 31.6 °F 29.90 in Calm     93% 0.03 in
06:29 33.7 °F 31.9 °F 29.90 in North 0.3 mph 1.0 mph 93% 0.04 in
06:34 33.8 °F 32.0 °F 29.90 in NNE 1.1 mph 2.3 mph 93% 0.04 in
06:39 33.8 °F 32.0 °F 29.90 in NNE 1.2 mph 1.2 mph 93% 0.03 in
06:44 33.8 °F 32.0 °F 29.91 in Calm     93% 0.03 in
06:47 33.8 °F 32.0 °F 29.91 in Calm     93% 0.03 in
06:54 33.9 °F 32.1 °F 29.91 in Calm     93% 0.03 in
06:59 33.9 °F 32.1 °F 29.91 in Calm     93% 0.04 in
07:04 34.1 °F 32.3 °F 29.92 in Calm     93% 0.03 in
07:09 34.3 °F 32.5 °F 29.91 in Calm   1.2 mph 93% 0.03 in
07:14 34.4 °F 32.6 °F 29.92 in East 0.4 mph 1.2 mph 93% 0.03 in
07:19 34.5 °F 32.7 °F 29.93 in Calm     93% 0.03 in
07:24 34.6 °F 32.8 °F 29.93 in Calm     93% 0.02 in
07:29 34.7 °F 32.9 °F 29.93 in Calm     93% 0.03 in
07:34 34.8 °F 33.0 °F 29.94 in SSW 0.1 mph 1.2 mph 93% 0.02 in
07:39 35.0 °F 33.2 °F 29.95 in SW 0.1 mph 1.2 mph 93% 0.02 in
07:44 35.1 °F 33.0 °F 29.96 in SSW 0.8 mph 1.2 mph 92% 0.03 in
07:49 35.1 °F 33.0 °F 29.96 in South 0.6 mph 2.3 mph 92% 0.03 in
07:54 35.0 °F 32.9 °F 29.96 in Calm   1.2 mph 92% 0.03 in
07:59 35.0 °F 32.9 °F 29.95 in Calm     92% 0.03 in
08:04 34.9 °F 32.8 °F 29.95 in Calm     92% 0.03 in
08:09 34.9 °F 32.8 °F 29.96 in Calm     92% 0.03 in
08:14 35.0 °F 32.9 °F 29.96 in Calm     92% 0.03 in
08:19 35.0 °F 32.9 °F 29.96 in Calm     92% 0.03 in
08:24 35.0 °F 32.9 °F 29.97 in Calm     92% 0.04 in
08:29 35.2 °F 33.1 °F 29.97 in Calm     92% 0.03 in
08:34 35.2 °F 33.1 °F 29.96 in Calm     92% 0.04 in
08:39 35.4 °F 33.3 °F 29.96 in SE 0.1 mph 1.2 mph 92% 0.04 in
08:44 35.5 °F 33.4 °F 29.96 in Calm     92% 0.03 in
08:49 35.5 °F 33.4 °F 29.96 in ESE 0.2 mph 1.2 mph 92% 0.04 in
08:54 35.6 °F 33.5 °F 29.97 in SE 0.8 mph 2.3 mph 92% 0.04 in
08:59 35.7 °F 33.6 °F 29.98 in SE 0.6 mph 2.0 mph 92% 0.04 in
09:04 35.8 °F 33.7 °F 29.98 in SE 0.5 mph 2.3 mph 92% 0.04 in
09:09 35.9 °F 33.8 °F 29.98 in SE 0.5 mph 2.3 mph 92% 0.05 in
09:14 36.1 °F 34.0 °F 29.98 in ESE 0.1 mph 1.0 mph 92% 0.06 in
09:19 36.1 °F 34.0 °F 29.99 in SE 1.4 mph 3.5 mph 92% 0.06 in
09:24 36.1 °F 34.0 °F 29.98 in SE 1.4 mph 4.0 mph 92% 0.06 in
09:29 36.0 °F 33.9 °F 29.99 in SE 1.8 mph 4.0 mph 92% 0.06 in
09:34 36.0 °F 33.9 °F 29.99 in SE 1.4 mph 3.5 mph 92% 0.06 in
09:39 36.2 °F 34.1 °F 29.99 in SE 1.5 mph 3.5 mph 92% 0.07 in
09:44 36.3 °F 34.2 °F 29.99 in East 0.4 mph 2.3 mph 92% 0.08 in
09:49 36.6 °F 34.5 °F 29.99 in North 0.9 mph 3.5 mph 92% 0.07 in
09:54 36.7 °F 34.6 °F 29.99 in North 1.2 mph 3.5 mph 92% 0.08 in
09:59 36.7 °F 34.6 °F 29.99 in ENE 0.4 mph 1.2 mph 92% 0.07 in
10:04 36.9 °F 34.8 °F 30.00 in ESE 1.2 mph 2.3 mph 92% 0.08 in
10:09 36.9 °F 34.8 °F 30.00 in SE 2.0 mph 3.5 mph 92% 0.08 in
10:14 36.9 °F 34.8 °F 30.00 in SE 2.3 mph 2.3 mph 92% 0.07 in
10:19 36.9 °F 34.5 °F 30.00 in SE 2.2 mph 3.5 mph 91% 0.08 in
10:24 37.1 °F 35.0 °F 29.99 in SE 1.1 mph 1.2 mph 92% 0.08 in
10:29 37.2 °F 35.1 °F 30.00 in SE 0.5 mph 2.3 mph 92% 0.09 in
10:34 37.2 °F 35.1 °F 30.00 in ESE 1.3 mph 3.5 mph 92% 0.09 in
10:38 37.3 °F 35.2 °F 30.00 in SSE 2.9 mph 3.5 mph 92% 0.08 in
10:44 37.5 °F 35.4 °F 30.00 in SE 2.7 mph 3.5 mph 92% 0.09 in
10:47 37.5 °F 35.4 °F 30.01 in SSW 3.0 mph 3.5 mph 92% 0.09 in
10:54 37.5 °F 35.4 °F 30.01 in SE 1.5 mph 2.3 mph 92% 0.10 in
10:59 37.7 °F 35.6 °F 30.02 in SE 1.0 mph 2.3 mph 92% 0.11 in
11:04 37.7 °F 35.3 °F 30.02 in SE 1.5 mph 2.3 mph 91% 0.12 in
11:09 37.8 °F 35.4 °F 30.02 in SSW 1.5 mph 3.5 mph 91% 0.13 in
11:14 37.8 °F 35.4 °F 30.02 in South 0.7 mph   91% 0.12 in
11:19 37.8 °F 35.4 °F 30.01 in Calm     91% 0.13 in
11:24 37.9 °F 35.5 °F 30.02 in Calm     91% 0.13 in
11:33 38.3 °F 35.9 °F 30.02 in Calm   3.5 mph 91% 0.15 in
11:38 38.3 °F 35.6 °F 30.02 in ESE 4.0 mph 3.5 mph 90% 0.16 in
11:42 38.5 °F 36.1 °F 30.02 in Calm   1.2 mph 91% 0.15 in
11:46 38.5 °F 35.8 °F 30.02 in South 1.0 mph 3.5 mph 90% 0.16 in
11:54 38.8 °F 35.8 °F 30.02 in SSE 4.0 mph 3.5 mph 89% 0.16 in
11:59 38.8 °F 35.8 °F 30.02 in SW 2.5 mph 2.3 mph 89% 0.15 in
12:04 38.8 °F 35.8 °F 30.02 in South 1.0 mph 1.2 mph 89% 0.15 in
12:09 39.1 °F 36.4 °F 30.02 in SSE 0.6 mph 1.2 mph 90% 0.15 in
12:14 39.4 °F 36.7 °F 30.02 in SW 1.0 mph 3.0 mph 90% 0.14 in
12:17 39.4 °F 36.7 °F 30.02 in SW 1.0 mph 3.5 mph 90% 0.14 in
12:28 39.0 °F 36.0 °F 30.02 in SSE 2.8 mph 1.2 mph 89% 0.14 in
12:34 38.9 °F 35.9 °F 30.02 in SE 0.2 mph 1.2 mph 89% 0.13 in
12:39 39.0 °F 36.0 °F 30.02 in South 1.0 mph 1.2 mph 89% 0.13 in
12:43 39.0 °F 36.0 °F 30.02 in SSE 1.0 mph 2.3 mph 89% 0.13 in
12:49 39.1 °F 35.6 °F 30.02 in South 2.0 mph 2.3 mph 87% 0.13 in
12:54 39.2 °F 35.7 °F 30.02 in South 0.8 mph   87% 0.11 in
12:58 39.6 °F 36.3 °F 30.02 in Calm     88% 0.11 in
13:04 40.4 °F 37.1 °F 30.01 in Calm     88% 0.10 in
13:09 41.1 °F 37.2 °F 30.01 in Calm     86% 0.08 in
13:14 42.2 °F 38.9 °F 30.01 in Calm   2.0 mph 88% 0.07 in
13:19 42.3 °F 37.2 °F 30.01 in SSW 1.5 mph 3.5 mph 82% 0.06 in
13:24 42.5 °F 38.3 °F 30.01 in SE 1.2 mph 2.3 mph 85% 0.03 in
13:29 43.0 °F 38.2 °F 30.01 in SE 0.6 mph 1.2 mph 83% 0.02 in
13:34 43.5 °F 38.7 °F 30.01 in ESE 0.4 mph 2.3 mph 83% 0.01 in
13:39 43.6 °F 38.8 °F 30.01 in SW 0.1 mph 1.2 mph 83% 0.01 in
13:44 43.3 °F 36.6 °F 30.01 in ESE 1.5 mph 2.3 mph 77% 0.01 in
13:49 43.6 °F 37.5 °F 30.01 in Calm     79% 0.01 in
13:51 43.6 °F 37.5 °F 30.01 in Calm     79% 0.01 in
13:56 44.1 °F 37.3 °F 30.01 in Calm     77% 0.01 in
14:04 44.4 °F 38.0 °F 30.01 in SE 1.1 mph 2.3 mph 78% 0.00 in
14:09 44.1 °F 36.7 °F 30.01 in NNE 2.0 mph 2.3 mph 75% 0.00 in
14:11 44.1 °F 36.7 °F 30.01 in NNE 2.0 mph 2.3 mph 75% 0.00 in
14:19 43.6 °F 37.2 °F 30.01 in East 1.0 mph 1.2 mph 78% 0.00 in
14:24 43.8 °F 37.1 °F 30.01 in Calm     77% 0.00 in
14:29 43.7 °F 36.6 °F 30.01 in SSE 0.4 mph 2.3 mph 76% 0.00 in
14:34 43.7 °F 36.6 °F 30.01 in SW 1.8 mph 1.2 mph 76% 0.00 in
14:39 43.7 °F 37.0 °F 30.01 in SW 0.9 mph 2.3 mph 77% 0.00 in
14:44 43.5 °F 37.1 °F 30.01 in SSW 1.0 mph   78% 0.00 in
14:49 43.5 °F 37.7 °F 30.02 in SW 0.2 mph   80% 0.00 in
14:54 43.1 °F 37.0 °F 30.02 in SW 0.2 mph 2.3 mph 79% 0.00 in
14:59 43.2 °F 37.4 °F 30.02 in Calm   1.2 mph 80% 0.00 in
15:04 43.2 °F 36.8 °F 30.02 in SSW 1.1 mph 3.5 mph 78% 0.00 in
15:09 43.2 °F 37.1 °F 30.02 in SSE 3.0 mph 3.5 mph 79% 0.00 in
15:12 43.1 °F 37.3 °F 30.02 in SSE 1.0 mph 2.3 mph 80% 0.00 in
15:19 43.1 °F 36.4 °F 30.03 in WSW 2.0 mph 2.3 mph 77% 0.00 in
15:24 43.1 °F 37.0 °F 30.03 in SW 4.1 mph 3.5 mph 79% 0.00 in
15:29 43.3 °F 36.6 °F 30.03 in SSW 1.8 mph 2.3 mph 77% 0.00 in
15:34 44.2 °F 37.4 °F 30.03 in SE 2.1 mph 3.0 mph 77% 0.00 in
15:38 44.2 °F 36.4 °F 30.03 in SE 1.9 mph 2.3 mph 74% 0.00 in
15:44 44.5 °F 36.7 °F 30.04 in Calm     74% 0.00 in
15:49 44.4 °F 36.6 °F 30.04 in ESE 0.6 mph 1.2 mph 74% 0.00 in
15:54 43.3 °F 36.9 °F 30.05 in North 1.2 mph 3.5 mph 78% 0.00 in
15:59 42.2 °F 37.4 °F 30.05 in NNW 2.1 mph 3.5 mph 83% 0.02 in
16:04 40.9 °F 35.5 °F 30.05 in NNE 1.9 mph 3.5 mph 81% 0.06 in
16:09 40.4 °F 35.6 °F 30.05 in NNE 1.1 mph 3.5 mph 83% 0.07 in
16:14 41.1 °F 37.2 °F 30.05 in ENE 0.4 mph 2.3 mph 86% 0.07 in
16:19 41.7 °F 37.8 °F 30.06 in SSE 1.0 mph 2.3 mph 86% 0.07 in
16:24 42.5 °F 38.6 °F 30.06 in Calm   1.2 mph 86% 0.07 in
16:29 43.0 °F 38.5 °F 30.06 in ESE 1.5 mph 2.3 mph 84% 0.07 in
16:34 43.8 °F 39.6 °F 30.06 in ESE 0.2 mph 1.2 mph 85% 0.07 in
16:39 44.1 °F 38.3 °F 30.06 in South 2.1 mph 3.5 mph 80% 0.07 in
16:44 44.0 °F 38.9 °F 30.06 in NNW 1.8 mph 2.3 mph 82% 0.07 in
Anthen North Phoenix Weather
Compliments of Weather Underground - 2 mb